Time;durP1;ratioP1;P1;durP2;ratioP2;P2;SDS_P1;SDS_P2;PMS_P1;PMS_P2;Temp;Humidity;BMP_temperature;BMP_pressure;BME280_temperature;BME280_humidity;BME280_pressure;Samples;Min_cycle;Max_cycle;Signal;HPM_P1;HPM_P2
2023/08/26 00:02:26;;;;;;;2.30;2.03;;;;;;;22.83;63.45;100518.66;4992433;28;97031;-58
2023/08/26 00:04:52;;;;;;;1.87;1.77;;;;;;;22.83;63.49;100527.09;4983412;28;96802;-58
2023/08/26 00:07:17;;;;;;;8.73;2.17;;;;;;;22.82;63.41;100517.19;4990821;28;97082;-58
2023/08/26 00:09:42;;;;;;;2.07;1.97;;;;;;;22.81;63.55;100515.69;4993072;28;97306;-58
2023/08/26 00:12:08;;;;;;;1.77;1.50;;;;;;;22.79;63.51;100521.16;4989441;28;97282;-58
2023/08/26 00:14:33;;;;;;;2.50;1.97;;;;;;;22.79;63.62;100509.94;4989844;28;96930;-58
2023/08/26 00:16:59;;;;;;;3.50;1.87;;;;;;;22.75;63.58;100512.41;4989621;28;98200;-58
2023/08/26 00:19:24;;;;;;;2.13;1.73;;;;;;;22.73;63.53;100503.84;4992259;28;96929;-58
2023/08/26 00:21:50;;;;;;;2.57;2.07;;;;;;;22.69;63.47;100506.34;4992460;28;96978;-58
2023/08/26 00:24:16;;;;;;;2.60;2.40;;;;;;;22.65;63.56;100509.53;4990923;28;97895;-58
2023/08/26 00:26:41;;;;;;;2.70;2.00;;;;;;;22.65;63.60;100503.22;4991064;28;97192;-58
2023/08/26 00:29:07;;;;;;;2.53;1.77;;;;;;;22.61;63.55;100498.00;4990704;28;96972;-59
2023/08/26 00:31:32;;;;;;;4.23;1.90;;;;;;;22.58;63.62;100506.81;4991873;28;97345;-58
2023/08/26 00:34:02;;;;;;;2.33;1.63;;;;;;;22.58;63.76;100507.56;4990421;28;115261;-58
2023/08/26 00:36:27;;;;;;;2.00;1.73;;;;;;;22.57;63.72;100503.28;4991746;28;96919;-58
2023/08/26 00:38:52;;;;;;;2.47;2.10;;;;;;;22.57;63.64;100502.53;4992198;28;96964;-58
2023/08/26 00:41:17;;;;;;;4.53;2.30;;;;;;;22.55;63.90;100505.91;4991714;28;97277;-58
2023/08/26 00:43:43;;;;;;;2.50;2.30;;;;;;;22.56;63.77;100504.59;4988499;28;112949;-58
2023/08/26 00:46:08;;;;;;;1.80;1.70;;;;;;;22.54;63.78;100509.31;4991306;28;109464;-58
2023/08/26 00:48:35;;;;;;;2.30;2.13;;;;;;;22.52;63.80;100500.75;4988323;28;96653;-59
2023/08/26 00:51:00;;;;;;;2.30;2.13;;;;;;;22.51;63.87;100502.03;4986589;28;97162;-58
2023/08/26 00:53:25;;;;;;;2.73;2.00;;;;;;;22.48;63.92;100515.16;4986900;28;96915;-58
2023/08/26 00:55:51;;;;;;;2.37;2.23;;;;;;;22.49;63.75;100504.69;4989443;28;97186;-58
2023/08/26 00:58:18;;;;;;;2.20;1.83;;;;;;;22.45;63.78;100504.38;4992729;28;99482;-58
2023/08/26 01:00:44;;;;;;;2.40;2.20;;;;;;;22.43;63.85;100488.13;4989632;28;96689;-58
2023/08/26 01:03:09;;;;;;;2.10;1.90;;;;;;;22.37;63.83;100476.41;4989776;28;97420;-59
2023/08/26 01:05:35;;;;;;;2.20;2.10;;;;;;;22.35;63.94;100477.00;4986007;28;97585;-58
2023/08/26 01:08:05;;;;;;;2.33;1.93;;;;;;;22.34;63.99;100478.31;4988310;28;97077;-58
2023/08/26 01:11:00;;;;;;;2.30;2.10;;;;;;;22.35;64.13;100476.25;4993998;28;96824;-59
2023/08/26 01:13:32;;;;;;;2.67;2.47;;;;;;;22.29;64.02;100479.31;4989236;28;96949;-59
2023/08/26 01:15:59;;;;;;;3.50;2.23;;;;;;;22.29;64.03;100484.94;4989615;28;97829;-58
2023/08/26 01:18:24;;;;;;;2.30;2.10;;;;;;;22.30;63.98;100485.69;4993178;28;96854;-58
2023/08/26 01:20:51;;;;;;;2.67;2.27;;;;;;;22.28;63.90;100494.66;4989678;28;97134;-59
2023/08/26 01:23:36;;;;;;;5.47;2.60;;;;;;;22.29;64.00;100484.94;4991265;28;97105;-59
2023/08/26 01:26:02;;;;;;;2.00;1.90;;;;;;;22.25;63.97;100484.59;4990457;28;96767;-59
2023/08/26 01:28:27;;;;;;;3.70;2.17;;;;;;;22.24;63.92;100482.38;5002428;28;96979;-59
2023/08/26 01:30:55;;;;;;;2.60;2.40;;;;;;;22.21;64.00;100480.72;4989904;28;97142;-59
2023/08/26 01:33:24;;;;;;;2.27;2.07;;;;;;;22.20;64.06;100482.78;4991917;28;97020;-58
2023/08/26 01:35:58;;;;;;;3.00;2.70;;;;;;;22.19;64.15;100483.38;4998941;28;97124;-59
2023/08/26 01:38:25;;;;;;;2.73;2.30;;;;;;;22.20;64.05;100482.78;4988138;28;96713;-58
2023/08/26 01:40:56;;;;;;;3.97;2.37;;;;;;;22.18;64.15;100479.81;4992084;28;97714;-58
2023/08/26 01:43:23;;;;;;;3.67;2.33;;;;;;;22.19;64.20;100486.19;4988054;28;97464;-59
2023/08/26 01:45:50;;;;;;;3.20;2.60;;;;;;;22.19;64.25;100488.97;4991440;28;97125;-59
2023/08/26 01:48:16;;;;;;;3.30;2.93;;;;;;;22.19;64.32;100481.28;4994071;28;97054;-59
2023/08/26 01:50:41;;;;;;;4.17;3.77;;;;;;;22.18;64.33;100487.47;4995027;28;96932;-58
2023/08/26 01:53:08;;;;;;;4.43;3.50;;;;;;;22.17;64.42;100489.53;4994480;28;97121;-59
2023/08/26 01:55:33;;;;;;;3.90;3.00;;;;;;;22.15;64.48;100488.63;4991173;28;96736;-59
2023/08/26 01:57:59;;;;;;;3.47;2.57;;;;;;;22.12;64.38;100484.94;4991165;28;97145;-59
2023/08/26 02:00:24;;;;;;;5.03;2.53;;;;;;;22.12;64.18;100487.00;4994385;28;97042;-59
2023/08/26 02:02:50;;;;;;;2.80;2.60;;;;;;;22.10;64.22;100489.63;4987867;28;97129;-59
2023/08/26 02:05:15;;;;;;;4.13;2.60;;;;;;;22.08;64.33;100487.38;4988554;28;96729;-58
2023/08/26 02:07:42;;;;;;;2.80;2.60;;;;;;;22.08;64.34;100497.88;4990717;28;97345;-58
2023/08/26 02:10:08;;;;;;;2.93;2.73;;;;;;;22.08;64.43;100486.66;4992677;28;96827;-59
2023/08/26 02:12:33;;;;;;;4.90;2.80;;;;;;;22.06;64.31;100486.50;4990764;28;97231;-59
2023/08/26 02:15:01;;;;;;;2.77;2.57;;;;;;;22.04;64.33;100484.25;4988036;28;96724;-58
2023/08/26 02:17:26;;;;;;;3.10;2.83;;;;;;;22.02;64.31;100489.72;4991559;28;97215;-58
2023/08/26 02:19:51;;;;;;;5.70;4.33;;;;;;;22.01;64.52;100491.03;4992265;28;96729;-59
2023/08/26 02:22:16;;;;;;;6.70;4.37;;;;;;;22.02;64.45;100478.50;4990851;28;111790;-58
2023/08/26 02:24:42;;;;;;;3.83;3.53;;;;;;;22.02;64.75;100472.16;4996422;28;97211;-58
2023/08/26 02:27:07;;;;;;;8.77;4.63;;;;;;;22.01;64.47;100465.06;4993073;28;96901;-59
2023/08/26 02:29:33;;;;;;;5.90;4.40;;;;;;;22.01;64.36;100474.22;4993589;28;97392;-58
2023/08/26 02:31:58;;;;;;;5.13;4.60;;;;;;;22.02;64.59;100480.56;4988378;28;97505;-58
2023/08/26 02:34:25;;;;;;;9.50;5.10;;;;;;;22.02;64.61;100480.56;4990707;28;98284;-58
2023/08/26 02:36:51;;;;;;;4.50;4.10;;;;;;;22.03;64.62;100487.66;4993949;28;97310;-58
2023/08/26 02:39:16;;;;;;;4.83;4.37;;;;;;;22.04;64.72;100487.06;4995632;28;97018;-59
2023/08/26 02:41:41;;;;;;;10.73;6.37;;;;;;;22.08;64.76;100484.59;4991643;28;97509;-58
2023/08/26 02:44:07;;;;;;;6.00;5.37;;;;;;;22.13;64.86;100491.25;4994445;28;109718;-58
2023/08/26 02:46:32;;;;;;;7.00;6.20;;;;;;;22.13;64.71;100489.22;4994117;28;96923;-59
2023/08/26 02:48:57;;;;;;;6.10;5.50;;;;;;;22.16;64.67;100487.31;4988314;28;97306;-58
2023/08/26 02:51:23;;;;;;;5.67;5.17;;;;;;;22.19;64.85;100477.78;4993051;28;97158;-58
2023/08/26 02:53:48;;;;;;;7.77;6.30;;;;;;;22.22;64.78;100482.19;4989692;28;97312;-58
2023/08/26 02:56:13;;;;;;;11.10;6.50;;;;;;;22.26;65.00;100482.53;4984935;28;96841;-58
2023/08/26 02:58:39;;;;;;;7.20;6.50;;;;;;;22.27;64.70;100481.97;4988338;28;97100;-58
2023/08/26 03:01:06;;;;;;;8.03;6.93;;;;;;;22.29;64.98;100479.31;4988560;28;101360;-58
2023/08/26 03:03:31;;;;;;;13.40;9.17;;;;;;;22.31;65.00;100492.75;4984773;28;96809;-58
2023/08/26 03:05:57;;;;;;;11.37;8.30;;;;;;;22.35;65.02;100493.81;4988494;28;97009;-58
2023/08/26 03:08:23;;;;;;;10.90;9.40;;;;;;;22.37;65.11;100490.44;4990828;28;97006;-58
2023/08/26 03:11:03;;;;;;;10.90;8.87;;;;;;;22.37;65.25;100490.44;4986835;28;97013;-59
2023/08/26 03:13:28;;;;;;;10.27;8.70;;;;;;;22.38;65.01;100500.34;4989381;28;97197;-58
2023/08/26 03:15:54;;;;;;;9.97;8.90;;;;;;;22.35;64.99;100502.22;4990019;28;97122;-58
2023/08/26 03:18:19;;;;;;;12.97;10.53;;;;;;;22.36;65.23;100519.81;4987186;28;97283;-58
2023/08/26 03:20:44;;;;;;;11.60;9.83;;;;;;;22.36;65.09;100517.00;4987514;28;96768;-59
2023/08/26 03:23:10;;;;;;;11.10;9.93;;;;;;;22.33;65.04;100510.47;4987030;28;99675;-59
2023/08/26 03:25:39;;;;;;;13.80;8.17;;;;;;;22.34;64.98;100514.75;4994482;28;97551;-59
2023/08/26 03:28:05;;;;;;;9.40;8.17;;;;;;;22.27;64.86;100493.19;4990340;28;96872;-58
2023/08/26 03:30:30;;;;;;;12.73;8.80;;;;;;;22.24;64.95;100494.31;4988363;28;97343;-59
2023/08/26 03:32:56;;;;;;;12.10;9.33;;;;;;;22.19;64.90;100498.09;4987005;28;97155;-58
2023/08/26 03:35:22;;;;;;;7.20;6.53;;;;;;;22.15;65.07;100500.59;4988358;28;97168;-59
2023/08/26 03:37:47;;;;;;;8.37;6.67;;;;;;;22.14;64.97;100515.94;4990275;28;96862;-59
2023/08/26 03:40:13;;;;;;;13.23;7.43;;;;;;;22.14;65.11;100510.31;4989736;28;96695;-58
2023/08/26 03:42:39;;;;;;;7.70;6.90;;;;;;;22.15;65.16;100519.44;4986511;28;97293;-59
2023/08/26 03:45:04;;;;;;;7.53;6.33;;;;;;;22.13;65.17;100506.03;4990564;28;96965;-58
2023/08/26 03:47:31;;;;;;;7.40;5.43;;;;;;;22.12;65.02;100512.97;4996626;28;97126;-58
2023/08/26 03:49:57;;;;;;;11.70;5.90;;;;;;;22.12;65.19;100529.78;4991704;28;97215;-58
2023/08/26 03:52:22;;;;;;;6.77;6.07;;;;;;;22.08;65.25;100512.63;4994708;28;97118;-59
2023/08/26 03:54:47;;;;;;;6.50;5.53;;;;;;;22.10;65.29;100512.81;4992359;28;97082;-58
2023/08/26 03:57:13;;;;;;;6.70;5.90;;;;;;;22.07;65.17;100518.81;4988499;28;97111;-58
2023/08/26 03:59:38;;;;;;;5.67;5.03;;;;;;;22.05;65.26;100516.59;4990374;28;111515;-58
2023/08/26 04:02:03;;;;;;;8.63;6.33;;;;;;;22.05;65.27;100510.22;4993319;28;106111;-59
2023/08/26 04:04:30;;;;;;;8.63;6.67;;;;;;;22.04;65.23;100523.50;4990383;28;97276;-58
2023/08/26 04:06:57;;;;;;;8.80;6.10;;;;;;;22.03;65.35;100533.22;4990116;28;97437;-58
2023/08/26 04:09:23;;;;;;;9.20;6.50;;;;;;;22.06;65.24;100532.06;4990883;28;97273;-58
2023/08/26 04:11:48;;;;;;;7.90;6.30;;;;;;;22.08;65.32;100546.22;4994947;28;97897;-58
2023/08/26 04:14:14;;;;;;;7.77;7.07;;;;;;;22.09;65.38;100539.31;4992304;28;97089;-58
2023/08/26 04:16:39;;;;;;;11.70;8.60;;;;;;;22.10;65.54;100545.69;4992367;28;97641;-58
2023/08/26 04:19:05;;;;;;;12.97;10.27;;;;;;;22.11;65.51;100542.28;4988273;28;97374;-58
2023/08/26 04:21:31;;;;;;;14.50;11.60;;;;;;;22.13;65.58;100547.31;4981362;28;97354;-59
2023/08/26 04:23:56;;;;;;;12.90;11.27;;;;;;;22.14;65.64;100557.22;4987452;28;97160;-58
2023/08/26 04:26:22;;;;;;;21.90;14.07;;;;;;;22.14;65.77;100555.16;4992508;28;96954;-58
2023/08/26 04:28:47;;;;;;;18.90;15.47;;;;;;;22.18;65.68;100569.50;4992303;28;96751;-58
2023/08/26 04:31:12;;;;;;;20.37;16.17;;;;;;;22.20;65.76;100572.47;4993902;28;96983;-58
2023/08/26 04:33:38;;;;;;;16.70;14.40;;;;;;;22.21;65.84;100582.34;4987825;28;97222;-58
2023/08/26 04:36:03;;;;;;;20.60;15.87;;;;;;;22.21;65.92;100590.75;4988391;28;97216;-58
2023/08/26 04:38:28;;;;;;;19.87;15.70;;;;;;;22.23;65.83;100574.13;4993051;28;97110;-58
2023/08/26 04:40:54;;;;;;;17.97;13.70;;;;;;;22.23;65.82;100571.34;4989912;28;97507;-58
2023/08/26 04:43:19;;;;;;;18.00;14.80;;;;;;;22.24;65.66;100586.06;4988211;28;97111;-58
2023/08/26 04:45:44;;;;;;;23.10;15.37;;;;;;;22.25;65.83;100579.16;4994215;28;97249;-59
2023/08/26 04:48:10;;;;;;;18.00;14.93;;;;;;;22.26;65.71;100578.56;4990133;28;98791;-58
2023/08/26 04:50:36;;;;;;;15.27;13.37;;;;;;;22.27;65.74;100577.25;4989480;28;97097;-58
2023/08/26 04:53:02;;;;;;;19.30;15.37;;;;;;;22.28;65.59;100578.72;4989149;28;97002;-58
2023/08/26 04:55:27;;;;;;;18.27;13.70;;;;;;;22.28;65.58;100581.53;4990454;28;97188;-58
2023/08/26 04:57:53;;;;;;;19.30;15.80;;;;;;;22.29;65.61;100580.22;4989229;28;97441;-58
2023/08/26 05:00:18;;;;;;;16.67;14.30;;;;;;;22.30;65.65;100584.50;4986382;28;97077;-58
2023/08/26 05:02:44;;;;;;;20.97;15.50;;;;;;;22.30;65.58;100573.28;4987019;28;97178;-58
2023/08/26 05:05:09;;;;;;;18.67;14.47;;;;;;;22.31;65.63;100580.41;4989538;28;96863;-57
2023/08/26 05:07:35;;;;;;;18.23;15.80;;;;;;;22.35;65.53;100582.78;4988784;28;96839;-58
2023/08/26 05:10:03;;;;;;;16.70;13.50;;;;;;;22.36;65.63;100573.81;4990162;28;97542;-58
2023/08/26 05:12:29;;;;;;;17.33;13.60;;;;;;;22.34;65.71;100576.41;4988173;28;96703;-58
2023/08/26 05:14:54;;;;;;;15.90;13.80;;;;;;;22.32;65.70;100584.66;4988603;28;96652;-60
2023/08/26 05:17:20;;;;;;;16.00;14.00;;;;;;;22.30;65.77;100587.31;4988238;28;103208;-61
2023/08/26 05:19:45;;;;;;;16.43;14.70;;;;;;;22.29;65.65;100593.50;4989278;28;97559;-58
2023/08/26 05:22:10;;;;;;;16.20;13.60;;;;;;;22.31;65.66;100602.06;4991575;28;97354;-61
2023/08/26 05:24:36;;;;;;;18.50;14.47;;;;;;;22.28;65.90;100601.16;4990900;28;97352;-59
2023/08/26 05:27:01;;;;;;;19.20;15.73;;;;;;;22.29;65.82;100597.06;4988447;28;104992;-58
2023/08/26 05:29:26;;;;;;;16.20;13.50;;;;;;;22.31;65.83;100605.63;4989523;28;96822;-59
2023/08/26 05:31:52;;;;;;;16.37;13.47;;;;;;;22.32;65.75;100612.69;4990436;28;96849;-58
2023/08/26 05:34:17;;;;;;;16.90;14.10;;;;;;;22.36;65.82;100606.69;4993531;28;97275;-59
2023/08/26 05:36:42;;;;;;;18.07;14.77;;;;;;;22.39;65.62;100600.69;4990566;28;111271;-59
2023/08/26 05:39:08;;;;;;;16.87;13.20;;;;;;;22.41;65.58;100588.16;4989990;28;97560;-58
2023/08/26 05:41:33;;;;;;;16.90;13.50;;;;;;;22.45;65.61;100588.47;4990996;28;97210;-59
2023/08/26 05:43:58;;;;;;;15.83;13.70;;;;;;;22.47;65.37;100588.66;4990527;28;97387;-58
2023/08/26 05:46:24;;;;;;;13.57;12.17;;;;;;;22.49;65.42;100588.81;4988347;28;97221;-59
2023/08/26 05:48:49;;;;;;;16.63;12.80;;;;;;;22.49;65.22;100594.41;4988369;28;103799;-59
2023/08/26 05:51:14;;;;;;;14.87;12.00;;;;;;;22.49;65.34;100597.97;4988917;28;97195;-61
2023/08/26 05:53:40;;;;;;;15.37;13.33;;;;;;;22.48;65.23;100596.47;4987115;28;97284;-58
2023/08/26 05:56:05;;;;;;;15.73;12.23;;;;;;;22.47;65.19;100611.06;4986738;28;98024;-59
2023/08/26 05:58:30;;;;;;;13.33;12.00;;;;;;;22.48;65.06;100620.97;4992027;28;97102;-58
2023/08/26 06:00:56;;;;;;;12.13;10.70;;;;;;;22.49;65.07;100614.03;4989529;28;97012;-59
2023/08/26 06:03:21;;;;;;;12.47;11.17;;;;;;;22.49;64.99;100611.25;4990221;28;98556;-58
2023/08/26 06:05:46;;;;;;;12.37;11.07;;;;;;;22.48;64.96;100610.50;4991342;28;97627;-59
2023/08/26 06:08:12;;;;;;;12.20;10.53;;;;;;;22.50;65.05;100615.53;4986839;28;111655;-59
2023/08/26 06:10:37;;;;;;;12.47;10.53;;;;;;;22.53;64.84;100614.38;4987751;28;97930;-58
2023/08/26 06:13:02;;;;;;;12.63;10.50;;;;;;;22.57;64.86;100620.31;4982551;28;96843;-59
2023/08/26 06:15:28;;;;;;;15.27;10.80;;;;;;;22.58;64.79;100628.16;4986616;28;98083;-60
2023/08/26 06:17:53;;;;;;;14.63;10.77;;;;;;;22.57;64.65;100625.91;4984243;28;111554;-59
2023/08/26 06:20:18;;;;;;;12.40;10.27;;;;;;;22.57;64.78;100621.06;4988755;28;97483;-59
2023/08/26 06:22:45;;;;;;;11.83;10.63;;;;;;;22.58;64.33;100627.41;4985146;28;96891;-59
2023/08/26 06:25:11;;;;;;;12.60;10.50;;;;;;;22.58;64.63;100625.34;4983385;28;100306;-58
2023/08/26 06:27:36;;;;;;;11.47;10.30;;;;;;;22.63;64.66;100632.78;4988399;28;97204;-58
2023/08/26 06:30:03;;;;;;;12.67;11.37;;;;;;;22.65;64.54;100627.34;4988399;28;97060;-59
2023/08/26 06:32:29;;;;;;;14.30;10.57;;;;;;;22.69;64.36;100621.34;4990824;28;101141;-58
2023/08/26 06:34:54;;;;;;;11.70;9.30;;;;;;;22.74;64.30;100623.88;4987999;28;97242;-58
2023/08/26 06:37:19;;;;;;;14.43;11.40;;;;;;;22.75;64.26;100616.97;4988486;28;97062;-59
2023/08/26 06:39:45;;;;;;;12.50;10.20;;;;;;;22.79;64.27;100613.72;4986555;28;97204;-59
2023/08/26 06:42:11;;;;;;;12.17;10.27;;;;;;;22.81;64.18;100622.31;4988641;28;97689;-61
2023/08/26 06:44:36;;;;;;;11.87;10.57;;;;;;;22.82;64.08;100632.22;4986975;28;99382;-60
2023/08/26 06:47:01;;;;;;;11.30;9.77;;;;;;;22.85;63.91;100634.59;4989911;28;97045;-60
2023/08/26 06:49:27;;;;;;;10.30;9.27;;;;;;;22.87;64.20;100636.81;4983921;28;97363;-60
2023/08/26 06:51:52;;;;;;;14.17;10.70;;;;;;;22.89;64.21;100640.53;4986521;28;97236;-61
2023/08/26 06:54:17;;;;;;;13.80;12.00;;;;;;;22.86;63.90;100640.97;4986452;28;97792;-59
2023/08/26 06:56:43;;;;;;;11.57;9.57;;;;;;;22.84;64.05;100638.00;4988193;28;97596;-58
2023/08/26 06:59:08;;;;;;;12.47;9.97;;;;;;;22.82;63.91;100651.84;4987705;28;97058;-60
2023/08/26 07:01:34;;;;;;;11.33;10.10;;;;;;;22.81;63.82;100651.13;4984146;28;97019;-59
2023/08/26 07:04:06;;;;;;;11.93;10.10;;;;;;;22.82;63.36;100647.00;4986845;28;96782;-61
2023/08/26 07:06:32;;;;;;;12.97;10.13;;;;;;;22.82;63.61;100651.84;4984942;28;97506;-61
2023/08/26 07:08:58;;;;;;;12.20;10.40;;;;;;;22.86;63.58;100641.72;4989825;28;97438;-61
2023/08/26 07:11:23;;;;;;;10.63;9.63;;;;;;;22.87;63.38;100645.22;4988284;28;96944;-59
2023/08/26 07:13:48;;;;;;;12.10;9.80;;;;;;;22.84;63.26;100661.19;4988561;28;97342;-61
2023/08/26 07:16:14;;;;;;;11.60;10.40;;;;;;;22.81;63.23;100661.59;4988026;28;106308;-60
2023/08/26 07:18:39;;;;;;;10.33;8.20;;;;;;;22.77;63.52;100658.44;4986429;28;97331;-59
2023/08/26 07:21:04;;;;;;;16.03;9.67;;;;;;;22.72;63.26;100665.03;4991489;28;97035;-61
2023/08/26 07:23:30;;;;;;;9.70;8.70;;;;;;;22.67;63.23;100680.78;4991530;28;97909;-60
2023/08/26 07:25:55;;;;;;;11.07;8.07;;;;;;;22.71;63.10;100666.38;4989830;28;97135;-60
2023/08/26 07:28:21;;;;;;;8.20;7.03;;;;;;;22.73;62.51;100672.91;4989595;28;96721;-59
2023/08/26 07:30:46;;;;;;;5.20;4.70;;;;;;;22.73;61.55;100683.38;4990919;28;97013;-61
2023/08/26 07:33:12;;;;;;;3.30;2.80;;;;;;;22.74;60.78;100690.44;4991131;28;98564;-59
2023/08/26 07:35:37;;;;;;;2.53;2.33;;;;;;;22.70;59.87;100695.72;4991475;28;97334;-59
2023/08/26 07:38:02;;;;;;;3.00;2.70;;;;;;;22.67;59.44;100696.91;4991642;28;96927;-62
2023/08/26 07:40:28;;;;;;;7.03;2.60;;;;;;;22.67;59.18;100699.72;4992822;28;97716;-59
2023/08/26 07:42:54;;;;;;;2.80;2.13;;;;;;;22.74;58.87;100707.28;4992077;28;97900;-59
2023/08/26 07:45:19;;;;;;;2.30;2.10;;;;;;;22.77;58.52;100697.72;4991643;28;96760;-58
2023/08/26 07:47:45;;;;;;;2.60;2.40;;;;;;;22.76;58.33;100710.28;4994431;28;97151;-59
2023/08/26 07:50:10;;;;;;;3.57;2.70;;;;;;;22.78;58.05;100710.44;4991877;28;96815;-61
2023/08/26 07:52:36;;;;;;;2.67;2.43;;;;;;;22.79;58.00;100728.75;4991184;28;97353;-63
2023/08/26 07:55:01;;;;;;;3.37;3.00;;;;;;;22.79;57.58;100717.53;4994684;28;97150;-60
2023/08/26 07:57:27;;;;;;;3.87;2.83;;;;;;;22.78;57.54;100718.88;4990120;28;96975;-60
2023/08/26 07:59:52;;;;;;;3.77;3.47;;;;;;;22.82;57.55;100731.16;4991968;28;97387;-60
2023/08/26 08:02:18;;;;;;;5.70;3.77;;;;;;;22.79;57.58;100725.94;4987340;28;96849;-60
2023/08/26 08:04:43;;;;;;;3.67;3.37;;;;;;;22.77;57.54;100728.59;4992488;28;97276;-60
2023/08/26 08:07:09;;;;;;;3.30;2.87;;;;;;;22.84;57.29;100733.38;4980689;28;97281;-60
2023/08/26 08:09:34;;;;;;;3.10;2.80;;;;;;;22.92;57.19;100745.25;4987085;28;97028;-59
2023/08/26 08:11:59;;;;;;;3.17;2.90;;;;;;;22.96;57.04;100742.78;4992254;28;109250;-61
2023/08/26 08:14:25;;;;;;;2.60;2.40;;;;;;;23.02;56.78;100748.91;4987540;28;97149;-60
2023/08/26 08:16:50;;;;;;;3.27;2.03;;;;;;;23.10;56.46;100750.31;4990167;28;97364;-61
2023/08/26 08:19:15;;;;;;;3.17;1.60;;;;;;;23.11;55.82;100762.28;4991320;28;97870;-60
2023/08/26 08:21:40;;;;;;;1.90;1.80;;;;;;;23.09;55.70;100762.09;4989072;28;98266;-60
2023/08/26 08:24:06;;;;;;;1.80;1.47;;;;;;;23.12;55.22;100760.97;4990314;28;104133;-61
2023/08/26 08:26:32;;;;;;;1.90;1.17;;;;;;;23.14;55.20;100761.13;4990126;28;97083;-59
2023/08/26 08:28:58;;;;;;;5.23;1.50;;;;;;;23.19;54.69;100765.75;4988838;28;96936;-61
2023/08/26 08:31:23;;;;;;;2.27;1.70;;;;;;;23.19;54.68;100762.19;4990985;28;97097;-59
2023/08/26 08:33:49;;;;;;;1.97;1.30;;;;;;;23.20;54.25;100769.31;4991489;28;96970;-59
2023/08/26 08:36:14;;;;;;;3.50;0.90;;;;;;;23.20;54.06;100763.69;4992175;28;97414;-58
2023/08/26 08:38:40;;;;;;;1.10;1.00;;;;;;;23.17;53.65;100768.41;4990494;28;97264;-61
2023/08/26 08:41:05;;;;;;;1.10;1.00;;;;;;;23.10;53.34;100758.75;4986992;28;97432;-58
2023/08/26 08:43:32;;;;;;;1.03;0.93;;;;;;;23.10;53.15;100758.75;4983975;28;97768;-59
2023/08/26 08:45:57;;;;;;;2.50;1.40;;;;;;;23.17;53.32;100765.59;4976277;28;97089;-60
2023/08/26 08:48:23;;;;;;;3.37;1.03;;;;;;;23.26;52.96;100758.56;4989970;28;97362;-59
2023/08/26 08:50:50;;;;;;;0.93;0.77;;;;;;;23.30;52.46;100765.25;4984762;28;97088;-60
2023/08/26 08:53:25;;;;;;;1.17;0.90;;;;;;;23.35;50.79;100757.94;4988466;28;96999;-59
2023/08/26 08:55:51;;;;;;;1.73;1.00;;;;;;;23.36;52.16;100753.78;4986600;28;97043;-59
2023/08/26 08:58:17;;;;;;;1.30;0.90;;;;;;;23.42;52.24;100752.22;4974137;28;97152;-59
2023/08/26 09:00:42;;;;;;;2.30;0.90;;;;;;;23.55;51.91;100768.72;4971957;28;97524;-58
2023/08/26 09:03:08;;;;;;;1.20;1.10;;;;;;;23.61;51.54;100779.72;4977377;28;107306;-59
2023/08/26 09:05:34;;;;;;;1.37;0.97;;;;;;;23.64;51.18;100776.47;4978291;28;97159;-59
2023/08/26 09:08:02;;;;;;;1.37;0.90;;;;;;;23.69;51.38;100766.31;4979595;28;97019;-59
2023/08/26 09:10:28;;;;;;;1.70;1.00;;;;;;;23.75;51.39;100758.34;4980520;28;98187;-60
2023/08/26 09:12:54;;;;;;;1.80;1.13;;;;;;;23.86;51.24;100774.69;4981248;28;96912;-59
2023/08/26 09:15:19;;;;;;;1.23;0.97;;;;;;;23.93;51.24;100771.03;4982074;28;97153;-59
2023/08/26 09:17:46;;;;;;;1.87;1.00;;;;;;;24.01;51.11;100773.72;4979758;28;97301;-61
2023/08/26 09:20:11;;;;;;;2.03;1.00;;;;;;;24.10;50.81;100778.69;4978296;28;97142;-60
2023/08/26 09:22:36;;;;;;;1.57;0.80;;;;;;;24.19;50.47;100789.22;4979086;28;97999;-59
2023/08/26 09:25:05;;;;;;;2.10;0.80;;;;;;;24.33;50.67;100790.34;4982522;28;97014;-60
2023/08/26 09:31:03;;;;;;;1.53;0.80;;;;;;;24.58;49.09;100788.81;4961063;28;98339;-59
2023/08/26 09:33:29;;;;;;;1.13;0.80;;;;;;;24.70;49.84;100799.50;4979912;28;97765;-59
2023/08/26 09:35:55;;;;;;;1.87;1.07;;;;;;;24.64;50.09;100796.97;5013770;27;97317;-60
2023/08/26 09:38:21;;;;;;;2.60;0.93;;;;;;;24.53;50.02;100806.69;4996544;27;97427;-60
2023/08/26 09:40:46;;;;;;;2.67;0.90;;;;;;;24.49;49.90;100814.84;4961544;27;97234;-60
2023/08/26 09:43:12;;;;;;;1.00;0.83;;;;;;;24.35;49.82;100813.00;4998406;28;97115;-60
2023/08/26 09:45:38;;;;;;;1.43;1.10;;;;;;;24.15;49.85;100817.03;4973737;28;97498;-60
2023/08/26 09:48:05;;;;;;;1.37;0.83;;;;;;;24.05;49.50;100816.97;4915437;28;97410;-59
2023/08/26 09:50:33;;;;;;;1.53;0.90;;;;;;;23.87;49.73;100820.41;4770291;29;97584;-60
2023/08/26 09:52:59;;;;;;;1.20;1.00;;;;;;;23.71;49.88;100814.22;4795480;29;97263;-60
2023/08/26 09:55:25;;;;;;;4.07;0.90;;;;;;;23.75;50.03;100820.91;4809217;29;96946;-59
2023/08/26 09:57:52;;;;;;;1.67;0.93;;;;;;;23.89;49.87;100831.78;4809509;29;100358;-59
2023/08/26 10:00:20;;;;;;;1.00;0.87;;;;;;;23.98;49.96;100823.44;4814928;29;97438;-59
2023/08/26 10:02:50;;;;;;;1.13;0.73;;;;;;;24.05;48.75;100814.16;4805539;29;97223;-58
2023/08/26 10:05:22;;;;;;;2.60;1.00;;;;;;;24.06;49.38;100820.53;4808005;29;96979;-58
2023/08/26 10:07:50;;;;;;;1.53;0.90;;;;;;;24.14;49.14;100813.47;4809168;29;97088;-60
2023/08/26 10:10:24;;;;;;;1.80;1.10;;;;;;;24.23;47.04;100820.47;4808510;29;97425;-59
2023/08/26 10:12:54;;;;;;;1.30;1.00;;;;;;;24.24;48.37;100830.41;4812323;29;97224;-59
2023/08/26 10:15:21;;;;;;;2.17;0.80;;;;;;;24.14;48.34;100823.97;4810632;29;97022;-58
2023/08/26 10:17:49;;;;;;;1.37;0.70;;;;;;;24.05;48.51;100830.31;4809102;29;97095;-59
2023/08/26 10:20:15;;;;;;;2.23;0.80;;;;;;;24.04;48.64;100826.72;4809969;29;96939;-59
2023/08/26 10:22:41;;;;;;;1.10;0.80;;;;;;;24.08;48.55;100823.50;4811460;29;97272;-59
2023/08/26 10:25:09;;;;;;;1.43;0.90;;;;;;;24.19;48.40;100837.03;4810229;29;97271;-59
2023/08/26 10:27:36;;;;;;;1.37;1.07;;;;;;;24.22;47.88;100842.22;4810520;29;97113;-58
2023/08/26 10:30:03;;;;;;;3.00;0.93;;;;;;;24.23;47.82;100821.22;4808958;29;97449;-58
2023/08/26 10:32:28;;;;;;;2.50;0.77;;;;;;;24.31;48.18;100838.00;4809727;29;98912;-58
2023/08/26 10:35:00;;;;;;;2.33;0.93;;;;;;;24.49;47.30;100837.34;4810649;29;96997;-59
2023/08/26 10:37:31;;;;;;;1.63;1.07;;;;;;;24.60;46.98;100838.84;4809411;29;97082;-59
2023/08/26 10:40:04;;;;;;;2.30;0.83;;;;;;;24.70;46.11;100833.28;4806674;29;96874;-59
2023/08/26 10:42:29;;;;;;;2.17;1.20;;;;;;;24.77;47.42;100838.78;4809353;29;97248;-57
2023/08/26 10:44:56;;;;;;;1.43;0.83;;;;;;;24.80;47.24;100843.25;4811979;29;97370;-59
2023/08/26 10:47:40;;;;;;;1.87;0.80;;;;;;;24.82;45.29;100834.97;4805351;29;97074;-59
2023/08/26 10:50:22;;;;;;;1.87;1.23;;;;;;;24.96;46.42;100830.41;4834980;28;97434;-59
2023/08/26 10:52:56;;;;;;;0.80;0.70;;;;;;;24.96;45.84;100846.56;4860732;28;97690;-60
2023/08/26 10:55:32;;;;;;;1.67;1.00;;;;;;;24.98;45.29;100844.66;4853811;28;97006;-58
2023/08/26 10:58:06;;;;;;;1.43;0.83;;;;;;;25.07;45.81;100849.56;4853731;28;96937;-58
2023/08/26 11:00:32;;;;;;;1.90;1.00;;;;;;;25.21;46.38;100842.16;4851406;28;101088;-59
2023/08/26 11:02:57;;;;;;;2.43;1.00;;;;;;;25.17;46.22;100838.28;4853606;28;97238;-58
2023/08/26 11:05:23;;;;;;;1.93;0.87;;;;;;;25.19;45.85;100847.63;4852559;28;97317;-58
2023/08/26 11:07:49;;;;;;;2.40;1.00;;;;;;;25.00;45.60;100844.78;4853321;28;96901;-60
2023/08/26 11:10:28;;;;;;;1.10;0.90;;;;;;;24.81;45.08;100841.94;4853434;28;97928;-58
2023/08/26 11:12:53;;;;;;;2.27;1.00;;;;;;;24.70;46.07;100847.34;4853711;28;97094;-59
2023/08/26 11:15:19;;;;;;;0.97;0.77;;;;;;;24.69;46.21;100840.97;4853671;28;96710;-58
2023/08/26 11:17:44;;;;;;;1.23;0.80;;;;;;;24.87;46.32;100836.75;4848138;28;97304;-58
2023/08/26 11:20:10;;;;;;;1.40;1.10;;;;;;;25.09;46.31;100841.25;4846153;28;97678;-58